sensor_id;sensor_type;location;lat;lon;timestamp;P1;durP1;ratioP1;P2;durP2;ratioP2
19733;SDS011;10018;51.230;7.860;2024-01-10T00:02:00;18.87;;;8.17;;
19733;SDS011;10018;51.230;7.860;2024-01-10T00:04:25;19.20;;;7.63;;
19733;SDS011;10018;51.230;7.860;2024-01-10T00:06:51;19.17;;;7.23;;
19733;SDS011;10018;51.230;7.860;2024-01-10T00:09:17;16.60;;;7.50;;
19733;SDS011;10018;51.230;7.860;2024-01-10T00:11:45;16.80;;;7.67;;
19733;SDS011;10018;51.230;7.860;2024-01-10T00:14:10;19.23;;;7.93;;
19733;SDS011;10018;51.230;7.860;2024-01-10T00:16:36;19.77;;;7.67;;
19733;SDS011;10018;51.230;7.860;2024-01-10T00:19:01;19.87;;;8.40;;
19733;SDS011;10018;51.230;7.860;2024-01-10T00:21:27;19.50;;;8.20;;
19733;SDS011;10018;51.230;7.860;2024-01-10T00:23:53;19.60;;;7.80;;
19733;SDS011;10018;51.230;7.860;2024-01-10T00:26:19;16.73;;;7.50;;
19733;SDS011;10018;51.230;7.860;2024-01-10T00:28:44;18.00;;;7.70;;
19733;SDS011;10018;51.230;7.860;2024-01-10T00:31:13;17.47;;;8.07;;
19733;SDS011;10018;51.230;7.860;2024-01-10T00:33:39;16.70;;;7.80;;
19733;SDS011;10018;51.230;7.860;2024-01-10T00:36:05;20.13;;;8.00;;
19733;SDS011;10018;51.230;7.860;2024-01-10T00:38:31;20.87;;;9.03;;
19733;SDS011;10018;51.230;7.860;2024-01-10T00:40:56;38.60;;;17.00;;
19733;SDS011;10018;51.230;7.860;2024-01-10T00:43:24;63.10;;;29.73;;
19733;SDS011;10018;51.230;7.860;2024-01-10T00:45:50;69.97;;;29.50;;
19733;SDS011;10018;51.230;7.860;2024-01-10T00:48:18;63.73;;;26.83;;
19733;SDS011;10018;51.230;7.860;2024-01-10T00:50:44;58.80;;;27.57;;
19733;SDS011;10018;51.230;7.860;2024-01-10T00:53:10;48.00;;;23.20;;
19733;SDS011;10018;51.230;7.860;2024-01-10T00:55:36;36.53;;;15.90;;
19733;SDS011;10018;51.230;7.860;2024-01-10T00:58:03;44.73;;;15.07;;
19733;SDS011;10018;51.230;7.860;2024-01-10T01:00:29;43.33;;;17.93;;
19733;SDS011;10018;51.230;7.860;2024-01-10T01:02:55;44.17;;;18.23;;
19733;SDS011;10018;51.230;7.860;2024-01-10T01:05:20;40.63;;;16.47;;
19733;SDS011;10018;51.230;7.860;2024-01-10T01:07:46;40.57;;;16.23;;
19733;SDS011;10018;51.230;7.860;2024-01-10T01:10:11;39.77;;;15.97;;
19733;SDS011;10018;51.230;7.860;2024-01-10T01:12:37;30.93;;;12.97;;
19733;SDS011;10018;51.230;7.860;2024-01-10T01:15:05;31.87;;;13.13;;
19733;SDS011;10018;51.230;7.860;2024-01-10T01:17:33;36.47;;;13.57;;
19733;SDS011;10018;51.230;7.860;2024-01-10T01:19:59;26.80;;;11.37;;
19733;SDS011;10018;51.230;7.860;2024-01-10T01:22:25;27.13;;;10.93;;
19733;SDS011;10018;51.230;7.860;2024-01-10T01:24:51;23.53;;;10.67;;
19733;SDS011;10018;51.230;7.860;2024-01-10T01:27:17;23.73;;;10.60;;
19733;SDS011;10018;51.230;7.860;2024-01-10T01:29:45;24.40;;;10.20;;
19733;SDS011;10018;51.230;7.860;2024-01-10T01:32:10;27.17;;;10.70;;
19733;SDS011;10018;51.230;7.860;2024-01-10T01:34:38;27.63;;;11.17;;
19733;SDS011;10018;51.230;7.860;2024-01-10T01:37:03;28.17;;;11.40;;
19733;SDS011;10018;51.230;7.860;2024-01-10T01:39:30;25.00;;;10.70;;
19733;SDS011;10018;51.230;7.860;2024-01-10T01:41:57;28.63;;;12.07;;
19733;SDS011;10018;51.230;7.860;2024-01-10T01:44:23;28.77;;;11.50;;
19733;SDS011;10018;51.230;7.860;2024-01-10T01:46:51;29.27;;;11.50;;
19733;SDS011;10018;51.230;7.860;2024-01-10T01:49:16;26.20;;;11.33;;
19733;SDS011;10018;51.230;7.860;2024-01-10T01:51:42;31.03;;;12.63;;
19733;SDS011;10018;51.230;7.860;2024-01-10T01:54:08;33.77;;;13.27;;
19733;SDS011;10018;51.230;7.860;2024-01-10T01:56:37;28.93;;;12.40;;
19733;SDS011;10018;51.230;7.860;2024-01-10T01:59:04;31.90;;;12.83;;
19733;SDS011;10018;51.230;7.860;2024-01-10T02:01:30;46.97;;;19.03;;
19733;SDS011;10018;51.230;7.860;2024-01-10T02:03:56;33.47;;;14.33;;
19733;SDS011;10018;51.230;7.860;2024-01-10T02:06:22;28.33;;;12.20;;
19733;SDS011;10018;51.230;7.860;2024-01-10T02:08:48;25.63;;;10.40;;
19733;SDS011;10018;51.230;7.860;2024-01-10T02:11:13;23.30;;;9.70;;
19733;SDS011;10018;51.230;7.860;2024-01-10T02:13:39;22.60;;;9.23;;
19733;SDS011;10018;51.230;7.860;2024-01-10T02:16:06;17.93;;;8.37;;
19733;SDS011;10018;51.230;7.860;2024-01-10T02:18:32;21.30;;;8.83;;
19733;SDS011;10018;51.230;7.860;2024-01-10T02:21:00;17.93;;;7.87;;
19733;SDS011;10018;51.230;7.860;2024-01-10T02:23:25;20.43;;;8.87;;
19733;SDS011;10018;51.230;7.860;2024-01-10T02:25:51;25.73;;;11.40;;
19733;SDS011;10018;51.230;7.860;2024-01-10T02:28:17;29.37;;;11.83;;
19733;SDS011;10018;51.230;7.860;2024-01-10T02:30:43;29.87;;;12.27;;
19733;SDS011;10018;51.230;7.860;2024-01-10T02:33:08;32.03;;;12.67;;
19733;SDS011;10018;51.230;7.860;2024-01-10T02:35:34;29.40;;;12.47;;
19733;SDS011;10018;51.230;7.860;2024-01-10T02:37:59;30.83;;;11.73;;
19733;SDS011;10018;51.230;7.860;2024-01-10T02:40:25;33.77;;;12.97;;
19733;SDS011;10018;51.230;7.860;2024-01-10T02:42:51;43.63;;;15.13;;
19733;SDS011;10018;51.230;7.860;2024-01-10T02:45:17;37.63;;;14.17;;
19733;SDS011;10018;51.230;7.860;2024-01-10T02:47:42;39.87;;;12.63;;
19733;SDS011;10018;51.230;7.860;2024-01-10T02:50:09;24.60;;;10.13;;
19733;SDS011;10018;51.230;7.860;2024-01-10T02:52:35;22.97;;;10.30;;
19733;SDS011;10018;51.230;7.860;2024-01-10T02:55:00;21.87;;;9.13;;
19733;SDS011;10018;51.230;7.860;2024-01-10T02:57:26;27.07;;;9.90;;
19733;SDS011;10018;51.230;7.860;2024-01-10T02:59:52;33.60;;;11.97;;
19733;SDS011;10018;51.230;7.860;2024-01-10T03:02:17;31.07;;;13.10;;
19733;SDS011;10018;51.230;7.860;2024-01-10T03:04:45;36.03;;;12.93;;
19733;SDS011;10018;51.230;7.860;2024-01-10T03:07:10;34.70;;;12.57;;
19733;SDS011;10018;51.230;7.860;2024-01-10T03:09:36;30.63;;;12.00;;
19733;SDS011;10018;51.230;7.860;2024-01-10T03:12:02;26.67;;;10.47;;
19733;SDS011;10018;51.230;7.860;2024-01-10T03:14:30;23.80;;;9.80;;
19733;SDS011;10018;51.230;7.860;2024-01-10T03:16:55;23.00;;;9.17;;
19733;SDS011;10018;51.230;7.860;2024-01-10T03:19:21;27.07;;;10.43;;
19733;SDS011;10018;51.230;7.860;2024-01-10T03:21:46;25.87;;;10.20;;
19733;SDS011;10018;51.230;7.860;2024-01-10T03:24:12;28.50;;;10.60;;
19733;SDS011;10018;51.230;7.860;2024-01-10T03:26:37;29.23;;;10.73;;
19733;SDS011;10018;51.230;7.860;2024-01-10T03:29:03;27.80;;;10.37;;
19733;SDS011;10018;51.230;7.860;2024-01-10T03:31:29;21.43;;;8.90;;
19733;SDS011;10018;51.230;7.860;2024-01-10T03:33:56;21.30;;;8.67;;
19733;SDS011;10018;51.230;7.860;2024-01-10T03:36:23;21.20;;;8.60;;
19733;SDS011;10018;51.230;7.860;2024-01-10T03:38:49;16.77;;;7.17;;
19733;SDS011;10018;51.230;7.860;2024-01-10T03:41:18;15.70;;;7.60;;
19733;SDS011;10018;51.230;7.860;2024-01-10T03:43:45;16.83;;;7.23;;
19733;SDS011;10018;51.230;7.860;2024-01-10T03:46:11;18.67;;;7.77;;
19733;SDS011;10018;51.230;7.860;2024-01-10T03:48:38;22.63;;;9.47;;
19733;SDS011;10018;51.230;7.860;2024-01-10T03:51:12;31.70;;;12.07;;
19733;SDS011;10018;51.230;7.860;2024-01-10T03:53:38;25.50;;;10.10;;
19733;SDS011;10018;51.230;7.860;2024-01-10T03:56:04;27.93;;;10.57;;
19733;SDS011;10018;51.230;7.860;2024-01-10T03:58:30;25.87;;;10.07;;
19733;SDS011;10018;51.230;7.860;2024-01-10T04:00:56;26.87;;;10.13;;
19733;SDS011;10018;51.230;7.860;2024-01-10T04:03:21;30.17;;;11.17;;
19733;SDS011;10018;51.230;7.860;2024-01-10T04:05:47;30.37;;;11.07;;
19733;SDS011;10018;51.230;7.860;2024-01-10T04:08:12;34.23;;;13.57;;
19733;SDS011;10018;51.230;7.860;2024-01-10T04:10:38;38.73;;;14.10;;
19733;SDS011;10018;51.230;7.860;2024-01-10T04:13:06;28.93;;;11.07;;
19733;SDS011;10018;51.230;7.860;2024-01-10T04:15:31;26.87;;;9.73;;
19733;SDS011;10018;51.230;7.860;2024-01-10T04:17:57;21.63;;;9.13;;
19733;SDS011;10018;51.230;7.860;2024-01-10T04:20:22;21.67;;;9.23;;
19733;SDS011;10018;51.230;7.860;2024-01-10T04:22:48;24.03;;;8.33;;
19733;SDS011;10018;51.230;7.860;2024-01-10T04:25:13;20.30;;;8.63;;
19733;SDS011;10018;51.230;7.860;2024-01-10T04:27:39;18.07;;;8.03;;
19733;SDS011;10018;51.230;7.860;2024-01-10T04:30:05;20.87;;;8.43;;
19733;SDS011;10018;51.230;7.860;2024-01-10T04:32:31;17.30;;;8.30;;
19733;SDS011;10018;51.230;7.860;2024-01-10T04:34:59;19.20;;;8.37;;
19733;SDS011;10018;51.230;7.860;2024-01-10T04:37:25;18.50;;;8.80;;
19733;SDS011;10018;51.230;7.860;2024-01-10T04:39:55;20.77;;;8.63;;
19733;SDS011;10018;51.230;7.860;2024-01-10T04:42:21;19.10;;;8.23;;
19733;SDS011;10018;51.230;7.860;2024-01-10T04:44:46;22.90;;;9.37;;
19733;SDS011;10018;51.230;7.860;2024-01-10T04:47:12;24.83;;;10.27;;
19733;SDS011;10018;51.230;7.860;2024-01-10T04:49:37;20.40;;;8.63;;
19733;SDS011;10018;51.230;7.860;2024-01-10T04:52:03;20.33;;;8.30;;
19733;SDS011;10018;51.230;7.860;2024-01-10T04:54:29;16.80;;;7.77;;
19733;SDS011;10018;51.230;7.860;2024-01-10T04:56:54;20.43;;;8.60;;
19733;SDS011;10018;51.230;7.860;2024-01-10T04:59:20;24.00;;;8.77;;
19733;SDS011;10018;51.230;7.860;2024-01-10T05:01:48;25.93;;;9.33;;
19733;SDS011;10018;51.230;7.860;2024-01-10T05:04:14;22.47;;;9.10;;
19733;SDS011;10018;51.230;7.860;2024-01-10T05:06:39;22.17;;;9.80;;
19733;SDS011;10018;51.230;7.860;2024-01-10T05:09:05;35.67;;;13.10;;
19733;SDS011;10018;51.230;7.860;2024-01-10T05:11:31;35.87;;;14.83;;
19733;SDS011;10018;51.230;7.860;2024-01-10T05:13:57;42.90;;;15.73;;
19733;SDS011;10018;51.230;7.860;2024-01-10T05:16:23;41.63;;;15.63;;
19733;SDS011;10018;51.230;7.860;2024-01-10T05:18:48;34.50;;;14.30;;
19733;SDS011;10018;51.230;7.860;2024-01-10T05:21:14;41.23;;;16.47;;
19733;SDS011;10018;51.230;7.860;2024-01-10T05:23:40;44.90;;;17.80;;
19733;SDS011;10018;51.230;7.860;2024-01-10T05:26:06;34.47;;;13.33;;
19733;SDS011;10018;51.230;7.860;2024-01-10T05:28:31;32.73;;;12.23;;
19733;SDS011;10018;51.230;7.860;2024-01-10T05:30:57;28.73;;;11.43;;
19733;SDS011;10018;51.230;7.860;2024-01-10T05:33:24;24.77;;;10.57;;
19733;SDS011;10018;51.230;7.860;2024-01-10T05:35:49;22.63;;;10.17;;
19733;SDS011;10018;51.230;7.860;2024-01-10T05:38:15;21.50;;;9.60;;
19733;SDS011;10018;51.230;7.860;2024-01-10T05:40:41;22.23;;;9.43;;
19733;SDS011;10018;51.230;7.860;2024-01-10T05:43:06;23.20;;;9.43;;
19733;SDS011;10018;51.230;7.860;2024-01-10T05:45:32;21.30;;;10.23;;
19733;SDS011;10018;51.230;7.860;2024-01-10T05:47:58;22.70;;;9.73;;
19733;SDS011;10018;51.230;7.860;2024-01-10T05:50:24;23.97;;;9.70;;
19733;SDS011;10018;51.230;7.860;2024-01-10T05:52:50;21.13;;;9.50;;
19733;SDS011;10018;51.230;7.860;2024-01-10T05:55:15;22.10;;;9.73;;
19733;SDS011;10018;51.230;7.860;2024-01-10T05:57:41;23.90;;;9.90;;
19733;SDS011;10018;51.230;7.860;2024-01-10T06:00:11;21.20;;;8.73;;
19733;SDS011;10018;51.230;7.860;2024-01-10T06:02:41;23.03;;;9.60;;
19733;SDS011;10018;51.230;7.860;2024-01-10T06:05:08;25.00;;;9.50;;
19733;SDS011;10018;51.230;7.860;2024-01-10T06:07:34;20.83;;;8.93;;
19733;SDS011;10018;51.230;7.860;2024-01-10T06:10:01;23.40;;;9.30;;
19733;SDS011;10018;51.230;7.860;2024-01-10T06:12:29;21.83;;;9.03;;
19733;SDS011;10018;51.230;7.860;2024-01-10T06:14:55;24.50;;;10.20;;
19733;SDS011;10018;51.230;7.860;2024-01-10T06:17:21;26.03;;;10.37;;
19733;SDS011;10018;51.230;7.860;2024-01-10T06:19:47;23.93;;;10.03;;
19733;SDS011;10018;51.230;7.860;2024-01-10T06:22:12;24.33;;;10.23;;
19733;SDS011;10018;51.230;7.860;2024-01-10T06:24:38;21.80;;;10.00;;
19733;SDS011;10018;51.230;7.860;2024-01-10T06:27:04;29.73;;;12.70;;
19733;SDS011;10018;51.230;7.860;2024-01-10T06:29:31;39.30;;;16.27;;
19733;SDS011;10018;51.230;7.860;2024-01-10T06:31:59;37.27;;;15.50;;
19733;SDS011;10018;51.230;7.860;2024-01-10T06:34:26;28.37;;;12.47;;
19733;SDS011;10018;51.230;7.860;2024-01-10T06:36:54;25.63;;;10.60;;
19733;SDS011;10018;51.230;7.860;2024-01-10T06:39:20;28.03;;;10.27;;
19733;SDS011;10018;51.230;7.860;2024-01-10T06:41:48;30.87;;;12.20;;
19733;SDS011;10018;51.230;7.860;2024-01-10T06:44:16;32.30;;;12.47;;
19733;SDS011;10018;51.230;7.860;2024-01-10T06:46:42;38.67;;;14.07;;
19733;SDS011;10018;51.230;7.860;2024-01-10T06:49:09;30.60;;;11.80;;
19733;SDS011;10018;51.230;7.860;2024-01-10T06:51:37;29.63;;;11.73;;
19733;SDS011;10018;51.230;7.860;2024-01-10T06:54:03;21.87;;;9.17;;
19733;SDS011;10018;51.230;7.860;2024-01-10T06:56:31;23.40;;;9.10;;
19733;SDS011;10018;51.230;7.860;2024-01-10T06:59:01;19.07;;;8.17;;
19733;SDS011;10018;51.230;7.860;2024-01-10T07:01:27;21.33;;;9.43;;
19733;SDS011;10018;51.230;7.860;2024-01-10T07:03:53;22.03;;;9.40;;
19733;SDS011;10018;51.230;7.860;2024-01-10T07:06:22;21.87;;;9.60;;
19733;SDS011;10018;51.230;7.860;2024-01-10T07:08:48;23.10;;;9.53;;
19733;SDS011;10018;51.230;7.860;2024-01-10T07:11:15;38.57;;;14.53;;
19733;SDS011;10018;51.230;7.860;2024-01-10T07:13:41;47.23;;;18.27;;
19733;SDS011;10018;51.230;7.860;2024-01-10T07:16:08;48.07;;;19.03;;
19733;SDS011;10018;51.230;7.860;2024-01-10T07:18:34;47.03;;;18.43;;
19733;SDS011;10018;51.230;7.860;2024-01-10T07:21:02;40.73;;;16.43;;
19733;SDS011;10018;51.230;7.860;2024-01-10T07:23:33;38.00;;;15.17;;
19733;SDS011;10018;51.230;7.860;2024-01-10T07:25:59;39.43;;;14.80;;
19733;SDS011;10018;51.230;7.860;2024-01-10T07:28:25;29.03;;;12.37;;
19733;SDS011;10018;51.230;7.860;2024-01-10T07:30:50;26.27;;;11.43;;
19733;SDS011;10018;51.230;7.860;2024-01-10T07:33:16;28.40;;;11.00;;
19733;SDS011;10018;51.230;7.860;2024-01-10T07:35:41;32.97;;;13.30;;
19733;SDS011;10018;51.230;7.860;2024-01-10T07:38:07;60.27;;;20.37;;
19733;SDS011;10018;51.230;7.860;2024-01-10T07:40:33;44.87;;;17.33;;
19733;SDS011;10018;51.230;7.860;2024-01-10T07:42:59;31.60;;;13.00;;
19733;SDS011;10018;51.230;7.860;2024-01-10T07:45:25;45.57;;;17.80;;
19733;SDS011;10018;51.230;7.860;2024-01-10T07:47:51;53.03;;;19.37;;
19733;SDS011;10018;51.230;7.860;2024-01-10T07:50:16;45.03;;;17.13;;
19733;SDS011;10018;51.230;7.860;2024-01-10T07:52:42;35.80;;;15.50;;
19733;SDS011;10018;51.230;7.860;2024-01-10T07:55:08;31.80;;;13.50;;
19733;SDS011;10018;51.230;7.860;2024-01-10T07:57:35;41.93;;;15.07;;
19733;SDS011;10018;51.230;7.860;2024-01-10T08:00:01;37.13;;;15.50;;
19733;SDS011;10018;51.230;7.860;2024-01-10T08:02:30;48.50;;;18.77;;
19733;SDS011;10018;51.230;7.860;2024-01-10T08:04:59;47.07;;;17.93;;
19733;SDS011;10018;51.230;7.860;2024-01-10T08:07:33;31.33;;;12.53;;
19733;SDS011;10018;51.230;7.860;2024-01-10T08:09:59;31.23;;;12.33;;
19733;SDS011;10018;51.230;7.860;2024-01-10T08:12:25;25.17;;;11.10;;
19733;SDS011;10018;51.230;7.860;2024-01-10T08:14:51;22.73;;;9.97;;
19733;SDS011;10018;51.230;7.860;2024-01-10T08:17:16;37.43;;;15.50;;
19733;SDS011;10018;51.230;7.860;2024-01-10T08:19:42;38.40;;;15.20;;
19733;SDS011;10018;51.230;7.860;2024-01-10T08:22:08;33.70;;;14.17;;
19733;SDS011;10018;51.230;7.860;2024-01-10T08:24:33;30.60;;;12.53;;
19733;SDS011;10018;51.230;7.860;2024-01-10T08:26:59;34.37;;;14.87;;
19733;SDS011;10018;51.230;7.860;2024-01-10T08:29:24;45.40;;;17.80;;
19733;SDS011;10018;51.230;7.860;2024-01-10T08:31:55;39.23;;;15.73;;
19733;SDS011;10018;51.230;7.860;2024-01-10T08:34:21;30.50;;;12.97;;
19733;SDS011;10018;51.230;7.860;2024-01-10T08:36:47;28.40;;;12.03;;
19733;SDS011;10018;51.230;7.860;2024-01-10T08:39:15;21.30;;;10.20;;
19733;SDS011;10018;51.230;7.860;2024-01-10T08:41:41;27.27;;;11.23;;
19733;SDS011;10018;51.230;7.860;2024-01-10T08:44:09;29.63;;;13.70;;
19733;SDS011;10018;51.230;7.860;2024-01-10T08:46:35;26.37;;;12.53;;
19733;SDS011;10018;51.230;7.860;2024-01-10T08:49:01;27.97;;;12.20;;
19733;SDS011;10018;51.230;7.860;2024-01-10T08:51:26;27.73;;;12.53;;
19733;SDS011;10018;51.230;7.860;2024-01-10T08:53:52;30.67;;;13.03;;
19733;SDS011;10018;51.230;7.860;2024-01-10T08:56:21;39.07;;;14.77;;
19733;SDS011;10018;51.230;7.860;2024-01-10T08:58:47;34.20;;;15.47;;
19733;SDS011;10018;51.230;7.860;2024-01-10T09:01:13;30.27;;;13.07;;
19733;SDS011;10018;51.230;7.860;2024-01-10T09:03:39;38.03;;;15.47;;
19733;SDS011;10018;51.230;7.860;2024-01-10T09:06:04;33.00;;;14.23;;
19733;SDS011;10018;51.230;7.860;2024-01-10T09:08:32;27.23;;;11.73;;
19733;SDS011;10018;51.230;7.860;2024-01-10T09:10:58;26.50;;;11.50;;
19733;SDS011;10018;51.230;7.860;2024-01-10T09:13:24;29.27;;;12.03;;
19733;SDS011;10018;51.230;7.860;2024-01-10T09:15:52;26.50;;;11.70;;
19733;SDS011;10018;51.230;7.860;2024-01-10T09:18:20;33.47;;;13.97;;
19733;SDS011;10018;51.230;7.860;2024-01-10T09:20:46;35.57;;;15.30;;
19733;SDS011;10018;51.230;7.860;2024-01-10T09:23:13;37.90;;;14.50;;
19733;SDS011;10018;51.230;7.860;2024-01-10T09:25:39;31.83;;;13.43;;
19733;SDS011;10018;51.230;7.860;2024-01-10T09:28:04;36.87;;;15.40;;
19733;SDS011;10018;51.230;7.860;2024-01-10T09:30:30;39.53;;;17.13;;
19733;SDS011;10018;51.230;7.860;2024-01-10T09:32:58;39.23;;;17.17;;
19733;SDS011;10018;51.230;7.860;2024-01-10T09:35:25;54.87;;;21.70;;
19733;SDS011;10018;51.230;7.860;2024-01-10T09:37:50;54.80;;;23.73;;
19733;SDS011;10018;51.230;7.860;2024-01-10T09:40:16;60.47;;;22.87;;
19733;SDS011;10018;51.230;7.860;2024-01-10T09:42:46;50.80;;;21.27;;
19733;SDS011;10018;51.230;7.860;2024-01-10T09:45:16;52.77;;;22.93;;
19733;SDS011;10018;51.230;7.860;2024-01-10T09:47:43;39.07;;;17.70;;
19733;SDS011;10018;51.230;7.860;2024-01-10T09:50:13;35.93;;;15.03;;
19733;SDS011;10018;51.230;7.860;2024-01-10T09:52:41;27.67;;;11.43;;
19733;SDS011;10018;51.230;7.860;2024-01-10T09:55:14;26.43;;;11.33;;
19733;SDS011;10018;51.230;7.860;2024-01-10T09:57:41;25.30;;;10.13;;
19733;SDS011;10018;51.230;7.860;2024-01-10T10:00:08;22.77;;;9.77;;
19733;SDS011;10018;51.230;7.860;2024-01-10T10:02:38;39.33;;;15.77;;
19733;SDS011;10018;51.230;7.860;2024-01-10T10:07:48;22.13;;;9.03;;
19733;SDS011;10018;51.230;7.860;2024-01-10T10:10:15;20.60;;;9.03;;
19733;SDS011;10018;51.230;7.860;2024-01-10T10:12:45;22.23;;;9.47;;
19733;SDS011;10018;51.230;7.860;2024-01-10T10:15:15;28.43;;;11.67;;
19733;SDS011;10018;51.230;7.860;2024-01-10T10:17:43;34.43;;;14.47;;
19733;SDS011;10018;51.230;7.860;2024-01-10T10:20:25;32.70;;;15.47;;
19733;SDS011;10018;51.230;7.860;2024-01-10T10:25:32;38.63;;;17.57;;
19733;SDS011;10018;51.230;7.860;2024-01-10T10:28:00;41.20;;;18.03;;
19733;SDS011;10018;51.230;7.860;2024-01-10T10:30:27;45.90;;;22.43;;
19733;SDS011;10018;51.230;7.860;2024-01-10T10:32:54;56.80;;;25.73;;
19733;SDS011;10018;51.230;7.860;2024-01-10T10:35:20;58.10;;;30.15;;
19733;SDS011;10018;51.230;7.860;2024-01-10T10:37:47;66.50;;;27.77;;
19733;SDS011;10018;51.230;7.860;2024-01-10T10:40:17;83.70;;;38.90;;
19733;SDS011;10018;51.230;7.860;2024-01-10T10:43:04;59.30;;;29.87;;
19733;SDS011;10018;51.230;7.860;2024-01-10T10:45:29;53.80;;;27.70;;
19733;SDS011;10018;51.230;7.860;2024-01-10T10:47:59;38.07;;;18.60;;
19733;SDS011;10018;51.230;7.860;2024-01-10T10:50:28;28.40;;;13.20;;
19733;SDS011;10018;51.230;7.860;2024-01-10T10:52:57;41.97;;;18.10;;
19733;SDS011;10018;51.230;7.860;2024-01-10T10:55:25;29.70;;;13.23;;
19733;SDS011;10018;51.230;7.860;2024-01-10T10:57:52;37.80;;;16.30;;
19733;SDS011;10018;51.230;7.860;2024-01-10T11:00:19;44.20;;;19.60;;
19733;SDS011;10018;51.230;7.860;2024-01-10T11:02:47;35.13;;;15.00;;
19733;SDS011;10018;51.230;7.860;2024-01-10T11:05:13;39.80;;;17.93;;
19733;SDS011;10018;51.230;7.860;2024-01-10T11:07:42;40.07;;;18.07;;
19733;SDS011;10018;51.230;7.860;2024-01-10T11:10:33;29.30;;;13.43;;
19733;SDS011;10018;51.230;7.860;2024-01-10T11:18:45;39.27;;;17.27;;
19733;SDS011;10018;51.230;7.860;2024-01-10T11:24:28;45.87;;;20.37;;
19733;SDS011;10018;51.230;7.860;2024-01-10T11:27:07;41.00;;;17.40;;
19733;SDS011;10018;51.230;7.860;2024-01-10T11:29:36;39.57;;;17.50;;
19733;SDS011;10018;51.230;7.860;2024-01-10T11:32:04;40.87;;;19.40;;
19733;SDS011;10018;51.230;7.860;2024-01-10T11:34:30;42.37;;;20.00;;
19733;SDS011;10018;51.230;7.860;2024-01-10T11:37:11;41.93;;;18.77;;
19733;SDS011;10018;51.230;7.860;2024-01-10T11:39:40;33.80;;;15.63;;
19733;SDS011;10018;51.230;7.860;2024-01-10T11:42:09;40.33;;;18.43;;
19733;SDS011;10018;51.230;7.860;2024-01-10T11:44:46;72.57;;;32.73;;
19733;SDS011;10018;51.230;7.860;2024-01-10T11:47:13;47.73;;;23.50;;
19733;SDS011;10018;51.230;7.860;2024-01-10T11:49:40;76.87;;;31.97;;
19733;SDS011;10018;51.230;7.860;2024-01-10T11:52:06;48.30;;;21.93;;
19733;SDS011;10018;51.230;7.860;2024-01-10T11:54:37;42.83;;;19.50;;
19733;SDS011;10018;51.230;7.860;2024-01-10T11:57:11;53.83;;;23.73;;
19733;SDS011;10018;51.230;7.860;2024-01-10T11:59:47;47.07;;;20.97;;
19733;SDS011;10018;51.230;7.860;2024-01-10T12:02:20;37.03;;;16.33;;
19733;SDS011;10018;51.230;7.860;2024-01-10T12:04:50;34.60;;;14.90;;
19733;SDS011;10018;51.230;7.860;2024-01-10T12:07:19;72.00;;;28.97;;
19733;SDS011;10018;51.230;7.860;2024-01-10T12:09:45;49.83;;;20.83;;
19733;SDS011;10018;51.230;7.860;2024-01-10T12:12:14;27.27;;;12.77;;
19733;SDS011;10018;51.230;7.860;2024-01-10T12:14:43;25.70;;;11.30;;
19733;SDS011;10018;51.230;7.860;2024-01-10T12:17:11;27.30;;;12.07;;
19733;SDS011;10018;51.230;7.860;2024-01-10T12:19:37;61.80;;;29.10;;
19733;SDS011;10018;51.230;7.860;2024-01-10T12:22:06;41.93;;;18.83;;
19733;SDS011;10018;51.230;7.860;2024-01-10T12:24:32;46.00;;;22.47;;
19733;SDS011;10018;51.230;7.860;2024-01-10T12:26:57;101.83;;;41.00;;
19733;SDS011;10018;51.230;7.860;2024-01-10T12:29:23;45.10;;;19.67;;
19733;SDS011;10018;51.230;7.860;2024-01-10T12:31:50;43.53;;;19.33;;
19733;SDS011;10018;51.230;7.860;2024-01-10T12:34:16;32.47;;;14.77;;
19733;SDS011;10018;51.230;7.860;2024-01-10T12:36:42;23.63;;;11.77;;
19733;SDS011;10018;51.230;7.860;2024-01-10T12:39:09;25.10;;;12.07;;
19733;SDS011;10018;51.230;7.860;2024-01-10T12:41:34;41.70;;;18.43;;
19733;SDS011;10018;51.230;7.860;2024-01-10T12:44:01;42.00;;;18.00;;
19733;SDS011;10018;51.230;7.860;2024-01-10T12:46:30;32.93;;;14.87;;
19733;SDS011;10018;51.230;7.860;2024-01-10T12:49:00;31.10;;;14.07;;
19733;SDS011;10018;51.230;7.860;2024-01-10T12:51:28;23.17;;;11.57;;
19733;SDS011;10018;51.230;7.860;2024-01-10T12:53:56;38.63;;;17.07;;
19733;SDS011;10018;51.230;7.860;2024-01-10T12:56:23;31.20;;;13.77;;
19733;SDS011;10018;51.230;7.860;2024-01-10T12:58:52;43.03;;;18.10;;
19733;SDS011;10018;51.230;7.860;2024-01-10T13:01:18;31.67;;;14.97;;
19733;SDS011;10018;51.230;7.860;2024-01-10T13:03:43;32.23;;;15.50;;
19733;SDS011;10018;51.230;7.860;2024-01-10T13:06:09;35.23;;;17.50;;
19733;SDS011;10018;51.230;7.860;2024-01-10T13:08:37;27.50;;;13.47;;
19733;SDS011;10018;51.230;7.860;2024-01-10T13:11:02;29.63;;;13.83;;
19733;SDS011;10018;51.230;7.860;2024-01-10T13:13:36;28.67;;;13.43;;
19733;SDS011;10018;51.230;7.860;2024-01-10T13:16:02;32.47;;;15.20;;
19733;SDS011;10018;51.230;7.860;2024-01-10T13:18:28;31.30;;;14.67;;
19733;SDS011;10018;51.230;7.860;2024-01-10T13:20:54;32.30;;;14.43;;
19733;SDS011;10018;51.230;7.860;2024-01-10T13:23:23;32.13;;;15.83;;
19733;SDS011;10018;51.230;7.860;2024-01-10T13:25:49;29.43;;;12.83;;
19733;SDS011;10018;51.230;7.860;2024-01-10T13:28:15;32.07;;;15.63;;
19733;SDS011;10018;51.230;7.860;2024-01-10T13:30:41;28.50;;;13.87;;
19733;SDS011;10018;51.230;7.860;2024-01-10T13:33:10;30.40;;;14.47;;
19733;SDS011;10018;51.230;7.860;2024-01-10T13:35:36;30.73;;;14.50;;
19733;SDS011;10018;51.230;7.860;2024-01-10T13:38:03;30.40;;;14.70;;
19733;SDS011;10018;51.230;7.860;2024-01-10T13:40:29;32.37;;;14.33;;
19733;SDS011;10018;51.230;7.860;2024-01-10T13:42:56;39.07;;;18.53;;
19733;SDS011;10018;51.230;7.860;2024-01-10T13:45:22;63.80;;;28.00;;
19733;SDS011;10018;51.230;7.860;2024-01-10T13:47:48;62.67;;;29.97;;
19733;SDS011;10018;51.230;7.860;2024-01-10T13:50:16;67.07;;;30.97;;
19733;SDS011;10018;51.230;7.860;2024-01-10T13:52:44;41.27;;;18.73;;
19733;SDS011;10018;51.230;7.860;2024-01-10T13:55:10;60.67;;;25.47;;
19733;SDS011;10018;51.230;7.860;2024-01-10T13:57:36;61.40;;;27.73;;
19733;SDS011;10018;51.230;7.860;2024-01-10T14:00:02;43.83;;;20.43;;
19733;SDS011;10018;51.230;7.860;2024-01-10T14:02:32;44.20;;;21.20;;
19733;SDS011;10018;51.230;7.860;2024-01-10T14:04:58;35.40;;;17.03;;
19733;SDS011;10018;51.230;7.860;2024-01-10T14:07:26;42.87;;;20.50;;
19733;SDS011;10018;51.230;7.860;2024-01-10T14:09:54;38.70;;;18.07;;
19733;SDS011;10018;51.230;7.860;2024-01-10T14:12:22;42.97;;;21.00;;
19733;SDS011;10018;51.230;7.860;2024-01-10T14:14:48;42.67;;;21.47;;
19733;SDS011;10018;51.230;7.860;2024-01-10T14:17:15;51.70;;;23.17;;
19733;SDS011;10018;51.230;7.860;2024-01-10T14:19:43;38.70;;;18.27;;
19733;SDS011;10018;51.230;7.860;2024-01-10T14:22:09;42.03;;;20.23;;
19733;SDS011;10018;51.230;7.860;2024-01-10T14:24:37;53.30;;;25.17;;
19733;SDS011;10018;51.230;7.860;2024-01-10T14:27:05;48.57;;;23.20;;
19733;SDS011;10018;51.230;7.860;2024-01-10T14:29:33;36.47;;;17.87;;
19733;SDS011;10018;51.230;7.860;2024-01-10T14:32:00;44.30;;;20.87;;
19733;SDS011;10018;51.230;7.860;2024-01-10T14:34:27;47.03;;;21.90;;
19733;SDS011;10018;51.230;7.860;2024-01-10T14:36:52;38.40;;;19.10;;